Time;durP1;ratioP1;P1;durP2;ratioP2;P2;SDS_P1;SDS_P2;PMS_P1;PMS_P2;Temp;Humidity;BMP_temperature;BMP_pressure;BME280_temperature;BME280_humidity;BME280_pressure;Samples;Min_cycle;Max_cycle;Signal;HPM_P1;HPM_P2
2023/10/19 00:01:06;;;;;;;;;;;;;;;10.81;100.00;99277.84;5037602;28;19929;-76
2023/10/19 00:03:31;;;;;;;;;;;;;;;10.82;100.00;99279.50;5039545;28;20307;-76
2023/10/19 00:05:57;;;;;;;;;;;;;;;10.85;100.00;99287.19;5030611;28;19951;-76
2023/10/19 00:08:23;;;;;;;;;;;;;;;10.85;100.00;99295.84;5030827;28;20437;-76
2023/10/19 00:11:03;;;;;;;;;;;;;;;10.87;100.00;99286.19;5032211;28;19925;-75
2023/10/19 00:13:29;;;;;;;;;;;;;;;10.89;100.00;99284.38;5029864;28;19917;-75
2023/10/19 00:15:54;;;;;;;;;;;;;;;10.91;100.00;99282.50;5034256;28;19923;-75
2023/10/19 00:18:23;;;;;;;;;;;;;;;10.91;100.00;99295.53;5011926;28;19918;-75
2023/10/19 00:20:53;;;;;;;;;;;;;;;10.91;100.00;99287.72;5008652;28;20017;-75
2023/10/19 00:23:27;;;;;;;;;;;;;;;10.93;100.00;99282.44;5015763;28;19917;-75
2023/10/19 00:25:54;;;;;;;;;;;;;;;10.91;100.00;99274.69;5001187;28;19918;-75
2023/10/19 00:28:20;;;;;;;;;;;;;;;10.94;100.00;99278.91;5011287;28;20246;-75
2023/10/19 00:30:47;;;;;;;;;;;;;;;10.95;100.00;99281.47;5024442;28;19924;-75
2023/10/19 00:33:17;;;;;;;;;;;;;;;10.96;100.00;99272.72;5018194;28;19918;-75
2023/10/19 00:35:46;;;;;;;;;;;;;;;10.98;100.00;99275.22;5037403;28;19917;-75
2023/10/19 00:38:27;;;;;;;;;;;;;;;10.97;100.00;99266.56;5015116;28;19974;-75
2023/10/19 00:40:53;;;;;;;;;;;;;;;10.99;100.00;99269.13;5019282;28;19951;-75
2023/10/19 00:43:43;;;;;;;;;;;;;;;11.00;100.00;99274.25;5018131;28;19924;-75
2023/10/19 00:46:20;;;;;;;;;;;;;;;11.05;100.00;99268.78;5004047;28;20326;-75
2023/10/19 00:48:49;;;;;;;;;;;;;;;11.11;100.00;99267.63;5016962;28;19913;-75
2023/10/19 00:51:41;;;;;;;;;;;;;;;11.16;100.00;99276.91;5028017;28;19939;-75
2023/10/19 00:54:10;;;;;;;;;;;;;;;11.22;100.00;99268.78;5011204;28;20007;-75
2023/10/19 00:56:36;;;;;;;;;;;;;;;11.28;100.00;99270.25;5015163;28;19920;-75
2023/10/19 00:59:12;;;;;;;;;;;;;;;11.30;100.00;99260.56;5011941;28;20258;-75
2023/10/19 01:01:43;;;;;;;;;;;;;;;11.35;100.00;99257.72;5005381;28;20000;-75
2023/10/19 01:04:13;;;;;;;;;;;;;;;11.38;100.00;99267.97;5039889;28;19960;-75
2023/10/19 01:06:39;;;;;;;;;;;;;;;11.42;100.00;99272.97;5014264;28;20344;-75
2023/10/19 01:09:05;;;;;;;;;;;;;;;11.44;100.00;99268.53;5008502;28;20008;-75
2023/10/19 01:11:30;;;;;;;;;;;;;;;11.48;100.00;99270.06;5004782;28;20377;-75
2023/10/19 01:13:56;;;;;;;;;;;;;;;11.52;100.00;99262.91;5011426;28;19940;-75
2023/10/19 01:16:21;;;;;;;;;;;;;;;11.56;100.00;99263.59;5030721;28;20281;-75
2023/10/19 01:18:48;;;;;;;;;;;;;;;11.59;100.00;99266.03;5019967;28;19921;-75
2023/10/19 01:21:14;;;;;;;;;;;;;;;11.61;100.00;99258.97;5021228;28;19913;-75
2023/10/19 01:23:41;;;;;;;;;;;;;;;11.67;100.00;99258.63;5011155;28;19921;-75
2023/10/19 01:26:07;;;;;;;;;;;;;;;11.71;100.00;99263.63;5013800;28;19949;-75
2023/10/19 01:28:48;;;;;;;;;;;;;;;11.76;100.00;99260.75;5016086;28;19928;-75
2023/10/19 01:33:55;;;;;;;;;;;;;;;11.82;100.00;99255.19;5015722;28;19970;-75
2023/10/19 01:38:47;;;;;;;;;;;;;;;11.90;100.00;99253.06;5035326;28;20497;-75
2023/10/19 01:41:18;;;;;;;;;;;;;;;11.94;100.00;99251.97;5017851;28;20019;-75
2023/10/19 01:43:44;;;;;;;;;;;;;;;11.98;100.00;99260.47;5018114;28;19920;-75
2023/10/19 01:46:12;;;;;;;;;;;;;;;11.97;100.00;99252.72;5016586;28;19921;-75
2023/10/19 01:48:40;;;;;;;;;;;;;;;11.95;100.00;99251.03;5020654;28;19997;-75
2023/10/19 01:51:06;;;;;;;;;;;;;;;11.95;100.00;99258.88;5009144;28;19961;-75
2023/10/19 01:53:36;;;;;;;;;;;;;;;11.96;100.00;99259.72;5023367;28;19959;-75
2023/10/19 01:56:05;;;;;;;;;;;;;;;12.00;100.00;99252.53;5012655;28;20004;-75
2023/10/19 01:58:30;;;;;;;;;;;;;;;12.02;100.00;99253.31;5015079;28;20284;-75
2023/10/19 02:01:00;;;;;;;;;;;;;;;12.05;100.00;99258.38;5008671;28;19918;-75
2023/10/19 02:03:27;;;;;;;;;;;;;;;12.09;100.00;99265.09;5022411;28;19920;-75
2023/10/19 02:05:59;;;;;;;;;;;;;;;12.12;100.00;99268.41;5014983;28;20008;-75
2023/10/19 02:08:26;;;;;;;;;;;;;;;12.17;100.00;99261.16;5011345;28;19921;-75
2023/10/19 02:10:51;;;;;;;;;;;;;;;12.22;100.00;99257.44;5005758;28;19926;-75
2023/10/19 02:13:17;;;;;;;;;;;;;;;12.26;100.00;99248.50;5004732;28;19928;-75
2023/10/19 02:15:43;;;;;;;;;;;;;;;12.30;100.00;99245.66;5041615;28;19955;-75
2023/10/19 02:18:08;;;;;;;;;;;;;;;12.33;100.00;99245.47;5036916;28;19918;-75
2023/10/19 02:20:34;;;;;;;;;;;;;;;12.36;100.00;99244.44;5028722;28;19913;-75
2023/10/19 02:23:03;;;;;;;;;;;;;;;12.36;100.00;99239.22;5029796;28;20368;-75
2023/10/19 02:25:30;;;;;;;;;;;;;;;12.36;100.00;99241.81;5016347;28;19921;-75
2023/10/19 02:27:55;;;;;;;;;;;;;;;12.36;100.00;99254.91;5010266;28;19925;-75
2023/10/19 02:30:20;;;;;;;;;;;;;;;12.35;100.00;99241.00;5016386;28;19921;-75
2023/10/19 02:32:47;;;;;;;;;;;;;;;12.37;100.00;99246.97;5017935;28;20367;-75
2023/10/19 02:35:13;;;;;;;;;;;;;;;12.40;100.00;99235.53;5019187;28;19917;-75
2023/10/19 02:37:39;;;;;;;;;;;;;;;12.42;100.00;99241.47;5029583;28;19918;-75
2023/10/19 02:40:12;;;;;;;;;;;;;;;12.44;100.00;99238.81;5015563;28;20287;-75
2023/10/19 02:42:38;;;;;;;;;;;;;;;12.46;100.00;99239.53;5021058;28;20937;-75
2023/10/19 02:45:05;;;;;;;;;;;;;;;12.49;100.00;99242.84;5008892;28;19917;-75
2023/10/19 02:47:30;;;;;;;;;;;;;;;12.51;100.00;99234.91;5023083;28;20329;-75
2023/10/19 02:49:55;;;;;;;;;;;;;;;12.50;100.00;99236.69;5017701;28;19917;-75
2023/10/19 02:52:22;;;;;;;;;;;;;;;12.50;100.00;99234.06;5011095;28;19917;-75
2023/10/19 02:54:47;;;;;;;;;;;;;;;12.50;100.00;99228.00;5022736;28;19973;-75
2023/10/19 02:57:13;;;;;;;;;;;;;;;12.51;100.00;99235.75;5018069;28;19917;-75
2023/10/19 02:59:39;;;;;;;;;;;;;;;12.52;100.00;99239.19;5008875;28;20293;-75
2023/10/19 03:02:15;;;;;;;;;;;;;;;12.53;100.00;99233.06;5015108;28;19918;-75
2023/10/19 03:04:41;;;;;;;;;;;;;;;12.52;100.00;99228.75;5008195;28;19970;-75
2023/10/19 03:07:11;;;;;;;;;;;;;;;12.53;100.00;99227.84;5045724;28;20323;-75
2023/10/19 03:09:37;;;;;;;;;;;;;;;12.53;100.00;99226.06;5000248;28;20034;-74
2023/10/19 03:12:04;;;;;;;;;;;;;;;12.52;100.00;99228.75;5043374;28;20319;-75
2023/10/19 03:14:29;;;;;;;;;;;;;;;12.50;100.00;99234.06;5029379;28;19920;-75
2023/10/19 03:16:55;;;;;;;;;;;;;;;12.51;100.00;99227.91;5016722;28;19921;-75
2023/10/19 03:19:20;;;;;;;;;;;;;;;12.48;100.00;99222.84;5002434;28;19924;-75
2023/10/19 03:21:51;;;;;;;;;;;;;;;12.47;100.00;99221.16;5008668;28;19921;-75
2023/10/19 03:24:23;;;;;;;;;;;;;;;12.50;100.00;99220.16;5015130;28;20357;-75
2023/10/19 03:26:51;;;;;;;;;;;;;;;12.49;100.00;99214.09;5022688;28;19981;-75
2023/10/19 03:29:25;;;;;;;;;;;;;;;12.50;100.00;99212.31;5018285;28;19940;-75
2023/10/19 03:31:50;;;;;;;;;;;;;;;12.51;100.00;99214.00;5011425;28;19917;-75
2023/10/19 03:34:18;;;;;;;;;;;;;;;12.50;100.00;99201.88;5015990;28;19924;-75
2023/10/19 03:36:44;;;;;;;;;;;;;;;12.50;100.00;99205.31;5013808;28;20432;-75
2023/10/19 03:39:13;;;;;;;;;;;;;;;12.50;100.00;99204.47;5016159;28;20004;-75
2023/10/19 03:41:41;;;;;;;;;;;;;;;12.50;100.00;99207.09;5041321;28;19987;-75
2023/10/19 03:44:08;;;;;;;;;;;;;;;12.49;100.00;99200.16;5021203;28;19989;-75
2023/10/19 03:46:37;;;;;;;;;;;;;;;12.49;100.00;99208.88;5024841;28;19923;-75
2023/10/19 03:49:10;;;;;;;;;;;;;;;12.50;100.00;99209.72;5015941;28;20319;-75
2023/10/19 03:51:58;;;;;;;;;;;;;;;12.51;100.00;99208.78;5025635;28;19921;-75
2023/10/19 03:54:24;;;;;;;;;;;;;;;12.48;100.00;99207.16;5004653;28;19924;-75
2023/10/19 03:56:52;;;;;;;;;;;;;;;12.44;100.00;99205.66;5025959;28;19965;-75
2023/10/19 03:59:18;;;;;;;;;;;;;;;12.39;100.00;99202.47;5019491;28;20426;-75
2023/10/19 04:01:46;;;;;;;;;;;;;;;12.35;100.00;99201.78;5012125;28;19920;-75
2023/10/19 04:04:13;;;;;;;;;;;;;;;12.33;100.00;99195.00;5008127;28;19917;-75
2023/10/19 04:06:38;;;;;;;;;;;;;;;12.29;100.00;99194.28;5018931;28;19913;-75
2023/10/19 04:09:06;;;;;;;;;;;;;;;12.27;100.00;99193.56;5012277;28;19963;-75
2023/10/19 04:11:33;;;;;;;;;;;;;;;12.27;100.00;99196.16;5007260;28;19922;-75
2023/10/19 04:14:03;;;;;;;;;;;;;;;12.29;100.00;99199.53;5016642;28;19970;-75
2023/10/19 04:16:28;;;;;;;;;;;;;;;12.31;100.00;99199.44;5011198;28;19928;-75
2023/10/19 04:18:54;;;;;;;;;;;;;;;12.34;100.00;99200.13;5008312;28;19917;-75
2023/10/19 04:21:19;;;;;;;;;;;;;;;12.33;100.00;99200.22;5009551;28;19921;-75
2023/10/19 04:23:46;;;;;;;;;;;;;;;12.35;100.00;99191.34;5023542;28;19924;-75
2023/10/19 04:26:12;;;;;;;;;;;;;;;12.35;100.00;99196.56;5021113;28;19924;-75
2023/10/19 04:28:41;;;;;;;;;;;;;;;12.30;100.00;99197.78;5044113;28;19925;-75
2023/10/19 04:31:07;;;;;;;;;;;;;;;12.28;100.00;99191.78;5039256;28;19933;-75
2023/10/19 04:33:33;;;;;;;;;;;;;;;12.26;100.00;99199.72;5057162;28;19921;-75
2023/10/19 04:36:00;;;;;;;;;;;;;;;12.23;100.00;99196.41;5042812;28;19917;-75
2023/10/19 04:38:25;;;;;;;;;;;;;;;12.20;100.00;99187.00;5060005;28;19961;-75
2023/10/19 04:40:50;;;;;;;;;;;;;;;12.22;100.00;99203.41;5041993;28;19925;-75
2023/10/19 04:43:19;;;;;;;;;;;;;;;12.18;100.00;99200.13;5057865;28;20353;-75
2023/10/19 04:45:44;;;;;;;;;;;;;;;12.12;100.00;99208.31;5011806;28;20416;-75
2023/10/19 04:48:10;;;;;;;;;;;;;;;12.04;100.00;99205.31;5024272;28;20070;-75
2023/10/19 04:50:35;;;;;;;;;;;;;;;11.99;100.00;99203.88;5021662;28;19948;-75
2023/10/19 04:53:00;;;;;;;;;;;;;;;11.95;100.00;99214.47;5015337;28;19917;-75
2023/10/19 04:55:25;;;;;;;;;;;;;;;11.95;100.00;99209.25;5022103;28;20280;-75
2023/10/19 04:57:50;;;;;;;;;;;;;;;11.95;100.00;99200.59;5032810;28;19917;-75
2023/10/19 05:00:17;;;;;;;;;;;;;;;11.94;100.00;99202.34;5015069;28;19924;-75
2023/10/19 05:02:42;;;;;;;;;;;;;;;11.94;100.00;99222.41;5011091;28;19949;-75
2023/10/19 05:05:08;;;;;;;;;;;;;;;11.94;100.00;99217.19;5023204;28;20036;-75
2023/10/19 05:07:33;;;;;;;;;;;;;;;11.94;100.00;99223.25;5045408;28;19917;-75
2023/10/19 05:09:59;;;;;;;;;;;;;;;11.95;100.00;99219.69;5028132;28;19917;-75
2023/10/19 05:12:24;;;;;;;;;;;;;;;11.95;100.00;99209.25;5026595;28;19924;-75
2023/10/19 05:14:50;;;;;;;;;;;;;;;11.97;100.00;99210.94;5018769;28;19917;-76
2023/10/19 05:17:15;;;;;;;;;;;;;;;12.00;100.00;99218.59;5066578;28;19922;-75
2023/10/19 05:19:41;;;;;;;;;;;;;;;12.00;100.00;99218.59;5012805;28;20004;-75
2023/10/19 05:22:07;;;;;;;;;;;;;;;12.01;100.00;99217.69;5036979;28;19969;-75
2023/10/19 05:24:32;;;;;;;;;;;;;;;12.01;100.00;99222.91;5013177;28;19962;-75
2023/10/19 05:26:58;;;;;;;;;;;;;;;12.00;100.00;99215.97;5007173;28;20341;-75
2023/10/19 05:29:26;;;;;;;;;;;;;;;11.98;100.00;99216.09;5006512;28;19991;-75
2023/10/19 05:31:54;;;;;;;;;;;;;;;11.98;100.00;99216.09;5015108;28;20332;-75
2023/10/19 05:34:20;;;;;;;;;;;;;;;11.97;100.00;99217.03;5015724;28;19918;-75
2023/10/19 05:36:48;;;;;;;;;;;;;;;11.98;100.00;99225.69;5043377;28;19917;-76
2023/10/19 05:39:13;;;;;;;;;;;;;;;12.00;100.00;99223.81;5027085;28;19917;-75
2023/10/19 05:41:39;;;;;;;;;;;;;;;12.02;100.00;99227.19;5042289;28;19917;-75
2023/10/19 05:44:05;;;;;;;;;;;;;;;12.03;100.00;99231.50;5012469;28;20284;-75
2023/10/19 05:46:31;;;;;;;;;;;;;;;12.01;100.00;99233.34;5015683;28;19917;-75
2023/10/19 05:48:57;;;;;;;;;;;;;;;12.02;100.00;99235.88;5013688;28;19962;-75
2023/10/19 05:51:23;;;;;;;;;;;;;;;12.03;100.00;99232.31;5021780;28;20078;-75
2023/10/19 05:53:48;;;;;;;;;;;;;;;12.03;100.00;99232.31;5015893;28;19914;-75
2023/10/19 05:56:13;;;;;;;;;;;;;;;12.03;100.00;99234.94;5017990;28;20012;-75
2023/10/19 05:58:39;;;;;;;;;;;;;;;12.01;100.00;99233.34;5006101;28;19961;-75
2023/10/19 06:01:04;;;;;;;;;;;;;;;12.01;100.00;99239.41;5017358;28;20015;-75
2023/10/19 06:03:30;;;;;;;;;;;;;;;12.02;100.00;99238.47;5051815;28;20007;-75
2023/10/19 06:05:56;;;;;;;;;;;;;;;12.04;100.00;99239.25;5010512;28;19917;-75
2023/10/19 06:08:21;;;;;;;;;;;;;;;12.05;100.00;99235.72;5028434;28;19915;-75
2023/10/19 06:10:50;;;;;;;;;;;;;;;12.08;100.00;99239.94;5026013;28;19921;-75
2023/10/19 06:13:15;;;;;;;;;;;;;;;12.07;100.00;99244.31;5049220;28;19934;-75
2023/10/19 06:15:41;;;;;;;;;;;;;;;12.09;100.00;99242.44;5024939;28;19917;-75
2023/10/19 06:18:06;;;;;;;;;;;;;;;12.13;100.00;99243.09;5029160;28;19917;-75
2023/10/19 06:20:33;;;;;;;;;;;;;;;12.14;100.00;99247.44;5012113;28;19922;-75
2023/10/19 06:23:04;;;;;;;;;;;;;;;12.15;100.00;99246.50;5002306;28;19943;-75
2023/10/19 06:25:30;;;;;;;;;;;;;;;12.15;100.00;99246.50;5029892;28;20290;-75
2023/10/19 06:27:57;;;;;;;;;;;;;;;12.13;100.00;99238.75;5025696;28;20395;-76
2023/10/19 06:30:22;;;;;;;;;;;;;;;12.13;100.00;99248.34;5033284;28;19947;-75
2023/10/19 06:32:53;;;;;;;;;;;;;;;12.12;100.00;99241.44;5035278;28;19953;-75
2023/10/19 06:35:19;;;;;;;;;;;;;;;12.11;100.00;99251.03;5024601;28;19917;-75
2023/10/19 06:37:44;;;;;;;;;;;;;;;12.11;100.00;99256.28;5043451;27;19968;-76
2023/10/19 06:40:15;;;;;;;;;;;;;;;12.13;100.00;99248.34;5024293;28;20019;-76
2023/10/19 06:42:41;;;;;;;;;;;;;;;12.15;100.00;99260.38;5037519;28;19917;-75
2023/10/19 06:45:07;;;;;;;;;;;;;;;12.17;100.00;99260.31;5008728;28;19917;-75
2023/10/19 06:47:37;;;;;;;;;;;;;;;12.19;100.00;99258.44;5009333;28;20361;-75
2023/10/19 06:50:04;;;;;;;;;;;;;;;12.23;100.00;99259.13;5014939;28;21123;-76
2023/10/19 06:52:29;;;;;;;;;;;;;;;12.24;100.00;99261.66;5014680;28;19917;-75
2023/10/19 06:54:54;;;;;;;;;;;;;;;12.27;100.00;99264.09;5012214;28;19925;-75
2023/10/19 06:57:20;;;;;;;;;;;;;;;12.32;100.00;99259.44;5045829;28;19917;-74
2023/10/19 06:59:45;;;;;;;;;;;;;;;12.37;100.00;99260.06;5017983;28;19923;-74
2023/10/19 07:02:12;;;;;;;;;;;;;;;12.43;100.00;99258.03;5012025;28;19927;-74
2023/10/19 07:04:38;;;;;;;;;;;;;;;12.49;100.00;99271.59;5012771;28;19921;-74
2023/10/19 07:07:03;;;;;;;;;;;;;;;12.53;100.00;99280.94;5013162;28;20262;-75
2023/10/19 07:09:29;;;;;;;;;;;;;;;12.57;100.00;99274.59;5013464;28;20007;-75
2023/10/19 07:11:54;;;;;;;;;;;;;;;12.60;100.00;99263.16;5019546;28;19920;-75
2023/10/19 07:14:22;;;;;;;;;;;;;;;12.63;100.00;99262.97;5014843;28;19939;-75
2023/10/19 07:16:47;;;;;;;;;;;;;;;12.65;100.00;99271.56;5015393;28;20012;-75
2023/10/19 07:19:14;;;;;;;;;;;;;;;12.67;100.00;99271.47;5009006;28;20008;-74
2023/10/19 07:21:42;;;;;;;;;;;;;;;12.69;100.00;99266.97;5016898;28;19921;-75
2023/10/19 07:24:11;;;;;;;;;;;;;;;12.69;100.00;99269.59;5017528;28;19966;-75
2023/10/19 07:26:43;;;;;;;;;;;;;;;12.70;100.00;99266.91;5032378;28;19948;-75
2023/10/19 07:29:10;;;;;;;;;;;;;;;12.70;100.00;99266.91;5012185;28;19924;-75
2023/10/19 07:31:38;;;;;;;;;;;;;;;12.70;100.00;99266.91;5041121;28;19932;-75
2023/10/19 07:34:03;;;;;;;;;;;;;;;12.73;100.00;99260.69;5011849;28;19924;-74
2023/10/19 07:36:29;;;;;;;;;;;;;;;12.76;100.00;99261.34;5011407;28;20293;-74
2023/10/19 07:38:55;;;;;;;;;;;;;;;12.78;100.00;99261.22;5009677;28;19921;-74
2023/10/19 07:41:20;;;;;;;;;;;;;;;12.81;100.00;99258.44;5021247;28;19924;-75
2023/10/19 07:43:46;;;;;;;;;;;;;;;12.82;100.00;99253.16;5020812;28;19926;-75
2023/10/19 07:46:11;;;;;;;;;;;;;;;12.85;100.00;99259.94;5007360;28;19922;-74
2023/10/19 07:48:38;;;;;;;;;;;;;;;12.89;100.00;99259.69;5008245;28;19928;-74
2023/10/19 07:51:03;;;;;;;;;;;;;;;12.93;100.00;99251.66;5018733;28;19917;-74
2023/10/19 07:53:30;;;;;;;;;;;;;;;12.96;100.00;99254.13;5031134;28;20380;-74
2023/10/19 07:55:57;;;;;;;;;;;;;;;12.99;100.00;99249.53;5043068;28;19924;-74
2023/10/19 07:58:22;;;;;;;;;;;;;;;13.02;100.00;99257.22;5029532;28;19917;-74
2023/10/19 08:00:47;;;;;;;;;;;;;;;13.05;100.00;99256.19;5042591;28;19926;-74
2023/10/19 08:03:15;;;;;;;;;;;;;;;13.07;100.00;99259.53;5031835;28;19917;-74
2023/10/19 08:05:41;;;;;;;;;;;;;;;13.07;100.00;99251.69;5047685;28;19990;-74
2023/10/19 08:08:06;;;;;;;;;;;;;;;13.05;100.00;99243.94;5031998;28;19917;-74
2023/10/19 08:10:31;;;;;;;;;;;;;;;13.07;100.00;99246.47;5050276;28;19919;-74
2023/10/19 08:12:56;;;;;;;;;;;;;;;13.10;100.00;99239.28;5031357;28;20016;-74
2023/10/19 08:15:22;;;;;;;;;;;;;;;13.16;100.00;99235.47;5043406;28;20282;-74
2023/10/19 08:17:49;;;;;;;;;;;;;;;13.21;100.00;99238.66;5040054;28;19946;-74
2023/10/19 08:20:23;;;;;;;;;;;;;;;13.25;100.00;99234.09;5032285;28;19942;-75
2023/10/19 08:22:50;;;;;;;;;;;;;;;13.27;100.00;99230.44;5023786;28;20321;-74
2023/10/19 08:25:16;;;;;;;;;;;;;;;13.31;100.00;99238.97;5031794;28;19917;-75
2023/10/19 08:27:44;;;;;;;;;;;;;;;13.31;100.00;99234.56;5034971;28;19921;-75
2023/10/19 08:30:10;;;;;;;;;;;;;;;13.33;100.00;99232.69;5023316;28;19921;-74
2023/10/19 08:32:36;;;;;;;;;;;;;;;13.37;100.00;99240.34;5020432;28;19942;-74
2023/10/19 08:35:01;;;;;;;;;;;;;;;13.40;100.00;99238.41;5022674;28;20364;-75
2023/10/19 08:37:26;;;;;;;;;;;;;;;13.40;100.00;99242.78;5047947;28;20280;-74
2023/10/19 08:39:52;;;;;;;;;;;;;;;13.41;100.00;99231.41;5024493;28;19924;-74
2023/10/19 08:42:17;;;;;;;;;;;;;;;13.40;100.00;99235.78;5046600;28;19977;-75
2023/10/19 08:44:43;;;;;;;;;;;;;;;13.43;100.00;99229.53;5029900;28;19917;-75
2023/10/19 08:47:08;;;;;;;;;;;;;;;13.47;100.00;99229.25;5046976;28;19917;-75
2023/10/19 08:49:33;;;;;;;;;;;;;;;13.54;100.00;99229.72;5031766;28;20261;-74
2023/10/19 08:52:00;;;;;;;;;;;;;;;13.61;100.00;99231.03;5046967;28;20342;-75
2023/10/19 08:54:25;;;;;;;;;;;;;;;13.68;100.00;99226.25;5023941;28;19914;-74
2023/10/19 08:56:51;;;;;;;;;;;;;;;13.73;100.00;99232.03;5011845;28;19918;-74
2023/10/19 08:59:16;;;;;;;;;;;;;;;13.80;100.00;99234.19;5018467;28;19924;-75
2023/10/19 09:01:45;;;;;;;;;;;;;;;13.86;100.00;99232.09;5018934;28;20277;-74
2023/10/19 09:04:10;;;;;;;;;;;;;;;13.91;100.00;99232.69;5006071;28;19921;-75
2023/10/19 09:06:42;;;;;;;;;;;;;;;14.01;100.00;99225.91;5046226;28;19916;-74
2023/10/19 09:09:16;;;;;;;;;;;;;;;14.10;100.00;99212.25;5011959;28;19929;-75
2023/10/19 09:11:48;;;;;;;;;;;;;;;14.18;100.00;99212.56;5034799;28;19917;-77
2023/10/19 09:14:14;;;;;;;;;;;;;;;14.18;100.00;99216.97;5014302;28;20376;-75
2023/10/19 09:16:55;;;;;;;;;;;;;;;14.11;100.00;99207.84;5018158;28;19924;-74
2023/10/19 09:19:21;;;;;;;;;;;;;;;14.03;100.00;99206.53;5034499;28;19924;-74
2023/10/19 09:21:46;;;;;;;;;;;;;;;14.03;100.00;99190.81;5024808;28;19917;-75
2023/10/19 09:24:11;;;;;;;;;;;;;;;14.05;100.00;99198.56;5026022;28;19963;-75
2023/10/19 09:26:37;;;;;;;;;;;;;;;14.08;100.00;99202.78;5016093;28;20372;-75
2023/10/19 09:29:03;;;;;;;;;;;;;;;14.16;100.00;99204.00;5012948;28;19924;-75
2023/10/19 09:31:30;;;;;;;;;;;;;;;14.35;100.00;99202.78;5042885;28;20432;-75
2023/10/19 09:33:56;;;;;;;;;;;;;;;14.43;100.00;99197.88;5091326;28;19915;-75
2023/10/19 09:36:25;;;;;;;;;;;;;;;14.51;100.00;99208.72;5046960;28;20295;-75
2023/10/19 09:38:51;;;;;;;;;;;;;;;14.56;100.00;99204.03;5031363;28;19924;-75
2023/10/19 09:41:21;;;;;;;;;;;;;;;14.67;100.00;99212.03;5044922;28;19917;-75
2023/10/19 09:43:50;;;;;;;;;;;;;;;14.67;100.00;99206.78;5008762;28;19921;-75
2023/10/19 09:46:23;;;;;;;;;;;;;;;14.65;100.00;99197.31;5017750;28;19923;-75
2023/10/19 09:48:49;;;;;;;;;;;;;;;14.60;100.00;99184.53;5030755;28;19917;-75
2023/10/19 09:51:16;;;;;;;;;;;;;;;14.62;100.00;99193.16;5048953;28;19916;-75
2023/10/19 09:53:42;;;;;;;;;;;;;;;14.69;100.00;99189.19;5031371;28;19967;-75
2023/10/19 09:56:11;;;;;;;;;;;;;;;14.80;100.00;99190.22;5048381;28;20010;-75
2023/10/19 09:58:43;;;;;;;;;;;;;;;14.89;100.00;99179.97;5026332;28;20303;-75
2023/10/19 10:01:12;;;;;;;;;;;;;;;14.95;100.00;99174.31;5014632;28;20446;-75
2023/10/19 10:03:43;;;;;;;;;;;;;;;15.09;100.00;99185.66;5032039;28;20024;-75
2023/10/19 10:06:09;;;;;;;;;;;;;;;15.22;100.00;99174.19;5029076;28;19977;-75
2023/10/19 10:08:36;;;;;;;;;;;;;;;15.36;100.00;99177.63;5040659;28;19921;-75
2023/10/19 10:11:13;;;;;;;;;;;;;;;15.52;100.00;99178.25;5031412;28;19912;-75
2023/10/19 10:13:38;;;;;;;;;;;;;;;15.72;100.00;99173.41;5043539;28;19917;-75
2023/10/19 10:16:04;;;;;;;;;;;;;;;15.87;100.00;99177.56;5033713;28;19924;-75
2023/10/19 10:18:32;;;;;;;;;;;;;;;15.97;100.00;99181.22;5054460;28;19916;-75
2023/10/19 10:21:16;;;;;;;;;;;;;;;16.04;100.00;99173.72;5012923;28;19971;-75
2023/10/19 10:23:43;;;;;;;;;;;;;;;16.07;100.00;99176.97;5005595;28;19970;-75
2023/10/19 10:26:13;;;;;;;;;;;;;;;16.12;100.00;99185.38;5041770;28;19918;-75
2023/10/19 10:28:39;;;;;;;;;;;;;;;16.15;100.00;99187.78;5029898;28;19961;-75
2023/10/19 10:31:24;;;;;;;;;;;;;;;16.15;100.00;99176.41;5041232;28;19918;-75
2023/10/19 10:33:56;;;;;;;;;;;;;;;16.13;100.00;99173.91;5013062;28;20300;-75
2023/10/19 10:36:22;;;;;;;;;;;;;;;16.06;100.00;99174.47;5012808;28;19970;-75
2023/10/19 10:38:49;;;;;;;;;;;;;;;16.06;100.00;99175.31;5012141;28;19925;-75
2023/10/19 10:41:21;;;;;;;;;;;;;;;16.08;100.00;99165.50;5018045;28;19964;-75
2023/10/19 10:43:52;;;;;;;;;;;;;;;16.18;100.00;99183.22;5005921;28;19913;-76
2023/10/19 10:46:17;;;;;;;;;;;;;;;16.22;100.00;99182.06;5010732;28;19925;-76
2023/10/19 10:48:43;;;;;;;;;;;;;;;16.22;100.00;99179.41;5017780;28;19920;-75
2023/10/19 10:51:21;;;;;;;;;;;;;;;16.22;100.00;99177.66;5016417;28;20707;-75
2023/10/19 10:53:53;;;;;;;;;;;;;;;16.15;100.00;99176.41;5005537;28;19925;-76
2023/10/19 10:56:19;;;;;;;;;;;;;;;16.09;100.00;99180.34;5046294;28;19961;-76
2023/10/19 10:58:45;;;;;;;;;;;;;;;16.03;100.00;99169.44;5027782;28;19917;-75
2023/10/19 11:01:10;;;;;;;;;;;;;;;15.99;100.00;99163.56;5040723;28;20018;-75
2023/10/19 11:03:36;;;;;;;;;;;;;;;15.98;100.00;99159.22;5035247;28;19917;-76
2023/10/19 11:06:08;;;;;;;;;;;;;;;16.00;100.00;99162.59;5018143;28;19917;-75
2023/10/19 11:08:33;;;;;;;;;;;;;;;16.04;100.00;99158.78;5034057;28;19921;-75
2023/10/19 11:11:04;;;;;;;;;;;;;;;16.11;100.00;99152.13;5034220;28;19924;-76
2023/10/19 11:13:30;;;;;;;;;;;;;;;16.19;100.00;99146.34;5029245;28;19985;-76
2023/10/19 11:15:58;;;;;;;;;;;;;;;16.30;100.00;99143.72;5015792;28;20312;-76
2023/10/19 11:18:32;;;;;;;;;;;;;;;16.38;100.00;99135.25;5035397;28;19922;-76
2023/10/19 11:20:59;;;;;;;;;;;;;;;16.48;100.00;99135.41;5038159;28;19924;-76
2023/10/19 11:23:37;;;;;;;;;;;;;;;16.59;100.00;99130.19;5006326;28;19921;-75
2023/10/19 11:26:05;;;;;;;;;;;;;;;16.81;100.00;99126.81;5015658;28;20293;-79
2023/10/19 11:28:31;;;;;;;;;;;;;;;16.92;100.00;99124.19;5010734;28;19917;-76
2023/10/19 11:31:09;;;;;;;;;;;;;;;17.03;100.00;99126.81;5017633;28;19917;-75
2023/10/19 11:33:36;;;;;;;;;;;;;;;17.06;100.00;99123.13;5007291;28;19984;-75
2023/10/19 11:36:02;;;;;;;;;;;;;;;17.04;100.00;99115.34;5019126;28;19928;-75
2023/10/19 11:38:27;;;;;;;;;;;;;;;17.01;100.00;99112.97;5057356;28;19921;-75
2023/10/19 11:40:52;;;;;;;;;;;;;;;16.89;100.00;99108.63;5036538;28;20275;-75
2023/10/19 11:43:18;;;;;;;;;;;;;;;16.72;100.00;99102.00;5028710;28;19963;-75
2023/10/19 11:45:43;;;;;;;;;;;;;;;16.50;100.00;99105.41;5025912;28;20425;-75
2023/10/19 11:48:08;;;;;;;;;;;;;;;16.33;100.00;99105.84;5018945;28;19925;-75
2023/10/19 11:50:34;;;;;;;;;;;;;;;16.21;100.00;99104.13;5029722;28;20293;-75
2023/10/19 11:52:59;;;;;;;;;;;;;;;16.09;100.00;99104.09;5034335;28;19949;-75
2023/10/19 11:55:24;;;;;;;;;;;;;;;15.97;100.00;99102.38;5020401;28;19917;-75
2023/10/19 11:57:50;;;;;;;;;;;;;;;15.81;100.00;99105.28;5047954;28;20407;-75
2023/10/19 12:00:21;;;;;;;;;;;;;;;15.75;100.00;99107.50;5023146;28;20253;-75
2023/10/19 12:02:47;;;;;;;;;;;;;;;15.73;100.00;99112.03;5030520;28;19924;-75
2023/10/19 12:05:12;;;;;;;;;;;;;;;15.73;100.00;99106.78;5029710;28;19917;-75
2023/10/19 12:07:38;;;;;;;;;;;;;;;15.74;100.00;99106.69;5038626;28;19927;-75
2023/10/19 12:10:04;;;;;;;;;;;;;;;15.79;100.00;99101.06;5013022;28;19924;-75
2023/10/19 12:12:29;;;;;;;;;;;;;;;15.84;100.00;99101.59;5012978;28;20308;-75
2023/10/19 12:14:55;;;;;;;;;;;;;;;15.85;100.00;99100.63;5017344;28;19917;-75
2023/10/19 12:17:22;;;;;;;;;;;;;;;15.90;100.00;99094.09;5018588;28;19924;-75
2023/10/19 12:19:47;;;;;;;;;;;;;;;15.92;100.00;99101.84;5034365;28;19917;-75
2023/10/19 12:22:13;;;;;;;;;;;;;;;15.92;100.00;99096.59;5046038;28;19913;-75
2023/10/19 12:24:38;;;;;;;;;;;;;;;15.93;100.00;99098.31;5022213;28;19917;-75
2023/10/19 12:27:04;;;;;;;;;;;;;;;15.94;100.00;99094.72;5043376;28;19996;-75
2023/10/19 12:29:31;;;;;;;;;;;;;;;15.97;100.00;99093.66;5015174;28;20379;-75
2023/10/19 12:31:56;;;;;;;;;;;;;;;16.01;100.00;99095.94;5020675;28;19924;-75
2023/10/19 12:34:22;;;;;;;;;;;;;;;15.97;100.00;99085.78;5020713;28;19917;-75
2023/10/19 12:36:49;;;;;;;;;;;;;;;15.96;100.00;99084.94;5043985;28;19944;-76
2023/10/19 12:39:35;;;;;;;;;;;;;;;15.84;100.00;99091.09;5022972;28;19918;-75
2023/10/19 12:42:01;;;;;;;;;;;;;;;15.68;100.00;99093.97;5057979;28;19916;-75